KLRD/LRD METAR and TAF weather

Enter ICAO airport designator
Station Type Date Time Source
KLRD METAR 2021/01/16 02:56 UTC NOAA

KLRD 160256Z 30005KT 10SM CLR 11/M06 A3022 RMK AO2 SLP234 T01061056 51016


Station Type Date Time Source
KLRD Decoded METAR 2021/01/16 02:56 UTC NOAA

Laredo, Laredo International Airport, TX, United States (KLRD) 27-32-37N 099-27-41W
Jan 15, 2021 - 09:56 PM EST / 2021.01.16 0256 UTC
Wind: from the WNW (300 degrees) at 6 MPH (5 KT):0
Visibility: 10 mile(s):0
Sky conditions: clear
Temperature: 51.1 F (10.6 C)
Dew Point: 21.9 F (-5.6 C)
Relative Humidity: 31%
Pressure (altimeter): 30.22 in. Hg (1023 hPa)
Pressure tendency: 0.05 inches (1.6 hPa) higher than three hours ago
ob: KLRD 160256Z 30005KT 10SM CLR 11/M06 A3022 RMK AO2 SLP234 T01061056 51016
cycle: 3

Station Type Date Time Source
KLRD TAF 2021/01/15 18:24 UTC NOAA

TAF KLRD 151722Z 1518/1618 34007KT P6SM SKC
FM160000 VRB03KT P6SM SKC

Example: see airport list